Overview Statistics Trail Chart Weather Telemetry Raw packets
 

This is the latest recevied weather packets stored in our database for station/object DD6UBW. If no packets are shown the sender has not sent any weather packets the latest 10 day(s).

<< 9 10 11 12 13 14 15 >>
Time Temp. Humidity Pressure Rain* Wind** Luminosity Snow
1788112801 22.78° C 55% 1011.6 hPa 0 mm - - -
1788111002 23.33° C 51% 1010.6 hPa 0 mm - - -
1788109201 24.44° C 48% 1010.6 hPa 0 mm - - -
1788107401 25.56° C 45% 1010.6 hPa 0 mm - - -
1788105601 25.56° C 45% 1009.6 hPa 0 mm - - -
1788103801 26.67° C 42% 1009.6 hPa 0 mm - - -
1788102002 27.78° C 41% 1009.6 hPa 0 mm - - -
1788100201 26.67° C 45% 1009.6 hPa 0 mm - - -
1788098401 25.56° C 48% 1009.6 hPa 0 mm - - -
1788096601 26.11° C 48% 1009.6 hPa 0 mm - - -
1788094801 25.56° C 51% 1009.6 hPa 0 mm - - -
1788093002 26.67° C 51% 1009.6 hPa 0 mm - - -
1788091203 25.56° C 53% 1009.6 hPa 0 mm - - -
1788089401 26.11° C 51% 1009.6 hPa 0 mm - - -
1788087601 25.56° C 52% 1009.6 hPa 0 mm - - -
1788085801 25.56° C 51% 1009.6 hPa 0 mm - - -
1788084001 26.11° C 51% 1009.6 hPa 0 mm - - -
1788082201 25° C 56% 1009.6 hPa 0 mm - - -
1788080402 25° C 56% 1009.6 hPa 0 mm - - -
1788078600 23.89° C 59% 1009.6 hPa 0 mm - - -
1788076801 23.33° C 61% 1009.6 hPa 0 mm - - -
1788075002 22.22° C 63% 1009.6 hPa 0 mm - - -
1788073202 21.67° C 66% 1009.6 hPa 0 mm - - -
1788071401 21.11° C 68% 1009.6 hPa 0 mm - - -
1788069603 19.44° C 71% 1009.6 hPa 0 mm - - -

* Rain since midnight (hover to see other rain measurements)
** Current wind speed in m/s (hover to see current wind gust speed)